createdAt,value
2022-09-16T00:02:28.044Z,91652.78
2022-09-16T00:05:00.432Z,91656.19
2022-09-16T00:07:32.784Z,91662.25
2022-09-16T00:10:07.122Z,91652.75
2022-09-16T00:12:39.569Z,91655.41
2022-09-16T00:15:11.922Z,91666.88
2022-09-16T00:17:44.286Z,91672.16
2022-09-16T00:20:16.652Z,91674.06
2022-09-16T00:22:49.030Z,91670.66
2022-09-16T00:25:22.015Z,91670.66
2022-09-16T00:27:54.352Z,91669.53
2022-09-16T00:30:26.728Z,91664.22
2022-09-16T00:32:59.145Z,91665.75
2022-09-16T00:35:31.640Z,91660.78
2022-09-16T00:38:03.951Z,91661.53
2022-09-16T00:40:43.999Z,91660.03
2022-09-16T00:43:17.633Z,91653.59
2022-09-16T00:45:57.039Z,91657.78
2022-09-16T00:48:32.232Z,91649.06
2022-09-16T00:51:08.503Z,91660.44
2022-09-16T00:53:44.950Z,91671.06
2022-09-16T00:56:22.930Z,91673.34
2022-09-16T00:59:02.680Z,91673.72
2022-09-16T01:01:35.608Z,91667.66
2022-09-16T01:04:13.403Z,91679.81
2022-09-16T01:06:45.875Z,91669.19
2022-09-16T01:09:22.212Z,91674.53
2022-09-16T01:11:55.195Z,91676.41
2022-09-16T01:14:47.218Z,91679.44
2022-09-16T01:17:36.972Z,91685.19
2022-09-16T01:20:39.019Z,91682.91
2022-09-16T01:23:58.583Z,91677.97
2022-09-16T01:26:57.597Z,91682.53
2022-09-16T01:29:48.079Z,91680.63
2022-09-16T01:32:27.853Z,91677.59
2022-09-16T01:35:08.574Z,91679.84
2022-09-16T01:37:47.020Z,91666.19
2022-09-16T01:40:33.181Z,91662.41
2022-09-16T01:43:15.180Z,91657.84
2022-09-16T01:45:54.690Z,91663.50
2022-09-16T01:48:35.451Z,91661.66
2022-09-16T01:51:14.068Z,91662.78
2022-09-16T01:53:51.387Z,91669.22
2022-09-16T01:56:30.258Z,91642.25
2022-09-16T01:59:08.255Z,91632.41
2022-09-16T02:01:48.651Z,91621.78
2022-09-16T02:04:25.189Z,91634.31
2022-09-16T02:07:01.349Z,91628.19
2022-09-16T02:09:37.113Z,91609.59
2022-09-16T02:12:14.561Z,91624.00
2022-09-16T02:14:49.307Z,91617.91
2022-09-16T02:17:26.806Z,91620.53
2022-09-16T02:20:03.778Z,91618.59
2022-09-16T02:22:39.695Z,91625.44
2022-09-16T02:25:15.495Z,91619.31
2022-09-16T02:27:49.907Z,91614.75
2022-09-16T02:30:23.455Z,91616.25
2022-09-16T02:33:01.304Z,91619.66
2022-09-16T02:35:37.193Z,91623.81
2022-09-16T02:38:14.117Z,91639.03
2022-09-16T02:40:52.348Z,91642.13
2022-09-16T02:43:26.485Z,91641.34
2022-09-16T02:46:07.728Z,91642.13
2022-09-16T02:48:50.336Z,91644.81
2022-09-16T02:51:33.555Z,91643.63
2022-09-16T02:54:12.053Z,91648.63
2022-09-16T02:56:44.464Z,91656.22
2022-09-16T02:59:17.558Z,91661.56
2022-09-16T03:01:49.949Z,91665.72
2022-09-16T03:04:22.294Z,91663.84
2022-09-16T03:06:55.373Z,91663.47
2022-09-16T03:09:29.125Z,91674.84
2022-09-16T03:12:17.931Z,91675.97
2022-09-16T03:15:11.108Z,91678.59
2022-09-16T03:18:00.354Z,91694.56
2022-09-16T03:20:36.409Z,91702.19
2022-09-16T03:23:18.710Z,91706.38
2022-09-16T03:25:59.541Z,91707.88
2022-09-16T03:28:42.867Z,91701.78
2022-09-16T03:31:21.445Z,91709.38
2022-09-16T03:34:02.521Z,91686.97
2022-09-16T03:36:40.449Z,91681.31
2022-09-16T03:39:14.886Z,91678.66
2022-09-16T03:41:47.551Z,91659.31
2022-09-16T03:44:19.855Z,91642.22
2022-09-16T03:46:52.164Z,91654.38
2022-09-16T03:49:24.598Z,91644.88
2022-09-16T03:51:57.303Z,91634.25
2022-09-16T03:54:30.642Z,91631.22
2022-09-16T03:57:03.751Z,91637.72
2022-09-16T03:59:36.082Z,91633.91
2022-09-16T04:02:08.413Z,91643.03
2022-09-16T04:04:40.731Z,91646.47
2022-09-16T04:07:13.124Z,91649.88
2022-09-16T04:09:46.122Z,91651.03
2022-09-16T04:12:18.437Z,91663.53
2022-09-16T04:14:50.766Z,91671.13
2022-09-16T04:17:23.513Z,91669.22
2022-09-16T04:19:55.875Z,91674.16
2022-09-16T04:22:29.065Z,91679.84
2022-09-16T04:25:02.108Z,91674.91
2022-09-16T04:27:34.375Z,91672.63
2022-09-16T04:30:08.000Z,91678.31
2022-09-16T04:32:40.241Z,91684.00
2022-09-16T04:35:12.583Z,91681.34
2022-09-16T04:37:45.002Z,91674.88
2022-09-16T04:40:18.206Z,91671.09
2022-09-16T04:42:51.227Z,91673.38
2022-09-16T04:45:23.671Z,91672.59
2022-09-16T04:47:56.882Z,91676.03
2022-09-16T04:50:29.350Z,91683.59
2022-09-16T04:53:01.679Z,91683.59
2022-09-16T04:55:34.670Z,91686.25
2022-09-16T04:58:06.930Z,91688.16
2022-09-16T05:00:39.601Z,91680.91
2022-09-16T05:03:11.945Z,91688.78
2022-09-16T05:05:44.316Z,91683.09
2022-09-16T05:08:16.588Z,91685.31
2022-09-16T05:10:49.599Z,91679.63
2022-09-16T05:13:23.007Z,91680.34
2022-09-16T05:15:55.384Z,91674.69
2022-09-16T05:18:27.811Z,91673.88
2022-09-16T05:21:01.877Z,91672.41
2022-09-16T05:23:34.767Z,91665.59
2022-09-16T05:26:09.845Z,91664.50
2022-09-16T05:28:42.675Z,91659.94
2022-09-16T05:31:16.600Z,91656.19
2022-09-16T05:33:54.179Z,91653.91
2022-09-16T05:36:28.697Z,91665.31
2022-09-16T05:41:57.561Z,91658.53
2022-09-16T05:44:30.371Z,91647.91
2022-09-16T05:47:03.007Z,91643.38
2022-09-16T05:49:36.431Z,91650.97
2022-09-16T05:52:09.218Z,91650.25
2022-09-16T05:54:41.654Z,91662.38
2022-09-16T05:57:14.635Z,91666.19
2022-09-16T05:59:46.968Z,91657.84
2022-09-16T06:02:19.353Z,91659.34
2022-09-16T06:04:52.560Z,91670.75
2022-09-16T06:07:24.890Z,91663.13
2022-09-16T06:09:57.171Z,91656.69
2022-09-16T06:12:30.217Z,91659.34
2022-09-16T06:15:02.564Z,91649.13
2022-09-16T06:17:35.019Z,91651.00
2022-09-16T06:20:13.274Z,91646.44
2022-09-16T06:22:45.915Z,91649.84
2022-09-16T06:25:18.238Z,91635.03
2022-09-16T06:27:51.247Z,91635.00
2022-09-16T06:30:24.681Z,91639.53
2022-09-16T06:32:59.427Z,91632.31
2022-09-16T06:35:34.344Z,91636.09
2022-09-16T06:38:06.673Z,91644.84
2022-09-16T06:40:38.990Z,91640.69
2022-09-16T06:43:11.958Z,91645.22
2022-09-16T06:45:44.318Z,91655.09
2022-09-16T06:48:16.783Z,91649.38
2022-09-16T06:50:49.065Z,91658.50
2022-09-16T06:53:22.355Z,91653.94
2022-09-16T06:55:54.782Z,91649.34
2022-09-16T06:58:28.968Z,91650.06
2022-09-16T07:01:05.512Z,91659.16
2022-09-16T07:03:39.085Z,91661.41
2022-09-16T07:06:13.203Z,91654.19
2022-09-16T07:08:46.277Z,91659.34
2022-09-16T07:11:20.768Z,91660.88
2022-09-16T07:13:53.971Z,91661.94
2022-09-16T07:16:26.593Z,91639.66
2022-09-16T07:19:01.233Z,91654.28
2022-09-16T07:21:33.785Z,91660.25
2022-09-16T07:24:06.153Z,91656.69
2022-09-16T07:26:39.966Z,91655.75
2022-09-16T07:29:14.470Z,91642.25
2022-09-16T07:31:47.442Z,91645.06
2022-09-16T07:34:19.788Z,91656.47
2022-09-16T07:36:52.234Z,91657.81
2022-09-16T07:39:25.354Z,91643.22
2022-09-16T07:41:57.619Z,91636.91
2022-09-16T07:44:30.711Z,91639.88
2022-09-16T07:47:03.187Z,91631.06
2022-09-16T07:49:35.499Z,91633.25
2022-09-16T07:52:07.899Z,91630.56
2022-09-16T07:54:41.132Z,91642.69
2022-09-16T07:57:13.812Z,91640.47
2022-09-16T07:59:47.223Z,91621.34
2022-09-16T08:02:19.707Z,91624.91
2022-09-16T08:04:52.126Z,91627.34
2022-09-16T08:07:24.378Z,91621.91
2022-09-16T08:09:56.667Z,91624.34
2022-09-16T08:12:31.682Z,91620.53
2022-09-16T08:15:06.059Z,91626.81
2022-09-16T08:17:38.370Z,91602.78
2022-09-16T08:20:10.843Z,91613.13
2022-09-16T08:22:43.210Z,91615.34
2022-09-16T08:25:15.704Z,91607.59
2022-09-16T08:27:48.717Z,91617.94
2022-09-16T08:30:22.899Z,91615.47
2022-09-16T08:32:56.096Z,91629.06
2022-09-16T08:35:28.387Z,91620.78
2022-09-16T08:38:00.793Z,91612.06
2022-09-16T08:40:35.702Z,91613.56
2022-09-16T08:43:16.258Z,91614.75
2022-09-16T08:45:54.962Z,91612.84
2022-09-16T08:48:34.980Z,91604.78
2022-09-16T08:51:09.195Z,91604.78
2022-09-16T08:53:46.034Z,91609.84
2022-09-16T08:56:21.993Z,91611.22
2022-09-16T08:58:57.078Z,91616.38
2022-09-16T09:01:36.352Z,91622.50
2022-09-16T09:04:08.931Z,91615.84
2022-09-16T09:06:58.590Z,91610.75
2022-09-16T09:09:48.688Z,91608.00
2022-09-16T09:12:29.387Z,91612.13
2022-09-16T09:15:26.082Z,91610.53
2022-09-16T09:18:16.101Z,91621.19
2022-09-16T09:20:56.577Z,91610.13
2022-09-16T09:23:43.919Z,91607.94
2022-09-16T09:26:21.581Z,91607.69
2022-09-16T09:29:24.142Z,91605.16
2022-09-16T09:32:03.882Z,91605.28
2022-09-16T09:34:54.540Z,91605.03
2022-09-16T09:37:42.474Z,91605.94
2022-09-16T09:40:20.174Z,91611.91
2022-09-16T09:43:04.363Z,91618.59
2022-09-16T09:45:40.702Z,91615.66
2022-09-16T09:48:18.201Z,91617.53
2022-09-16T09:50:53.051Z,91623.38
2022-09-16T09:53:29.442Z,91630.41
2022-09-16T09:56:12.834Z,91646.84
2022-09-16T09:58:53.533Z,91650.66
2022-09-16T10:01:25.941Z,91663.31
2022-09-16T10:03:59.710Z,91664.50
2022-09-16T10:06:35.038Z,91665.53
2022-09-16T10:09:12.446Z,91671.44
2022-09-16T10:11:49.336Z,91693.22
2022-09-16T10:14:29.689Z,91720.09
2022-09-16T10:17:04.727Z,91756.53
2022-09-16T10:19:49.539Z,91781.50
2022-09-16T10:22:26.052Z,91809.19
2022-09-16T10:25:00.177Z,91853.19
2022-09-16T10:27:35.272Z,91862.50
2022-09-16T10:30:14.387Z,91855.00
2022-09-16T10:32:52.272Z,91866.41
2022-09-16T10:35:27.313Z,91872.75
2022-09-16T10:38:03.782Z,91873.81
2022-09-16T10:40:36.793Z,91869.19
2022-09-16T10:43:15.754Z,91883.41
2022-09-16T10:45:50.684Z,91875.97
2022-09-16T10:48:26.786Z,91879.59
2022-09-16T10:51:01.460Z,91852.25
2022-09-16T10:53:39.426Z,91852.75
2022-09-16T10:56:18.394Z,91834.66
2022-09-16T10:59:03.213Z,91817.22
2022-09-16T11:01:46.450Z,91802.06
2022-09-16T11:04:37.191Z,91777.00
2022-09-16T11:07:42.642Z,91760.91
2022-09-16T11:10:23.865Z,91740.09
2022-09-16T11:13:16.494Z,91730.28
2022-09-16T11:16:06.027Z,91715.59
2022-09-16T11:18:50.780Z,91710.56
2022-09-16T11:21:44.987Z,91711.09
2022-09-16T11:24:32.614Z,91686.44
2022-09-16T11:27:12.671Z,91694.22
2022-09-16T11:30:04.521Z,91682.34
2022-09-16T11:33:02.320Z,91667.66
2022-09-16T11:36:03.703Z,91655.34
2022-09-16T11:38:43.878Z,91648.72
2022-09-16T11:41:25.037Z,91645.06
2022-09-16T11:44:15.518Z,91640.63
2022-09-16T11:47:01.441Z,91650.19
2022-09-16T11:49:54.431Z,91638.47
2022-09-16T11:52:42.329Z,91658.94
2022-09-16T11:55:36.046Z,91653.28
2022-09-16T11:58:21.531Z,91635.03
2022-09-16T12:00:59.153Z,91634.22
2022-09-16T12:03:39.970Z,91640.22
2022-09-16T12:06:17.204Z,91637.16
2022-09-16T12:08:58.014Z,91645.09
2022-09-16T12:11:35.863Z,91643.47
2022-09-16T12:14:20.305Z,91649.16
2022-09-16T12:16:58.619Z,91646.38
2022-09-16T12:19:35.922Z,91650.50
2022-09-16T12:22:15.528Z,91651.19
2022-09-16T12:24:53.462Z,91647.75
2022-09-16T12:27:38.743Z,91645.81
2022-09-16T12:30:17.523Z,91636.63
2022-09-16T12:32:59.333Z,91648.38
2022-09-16T12:35:34.963Z,91647.22
2022-09-16T12:38:17.729Z,91645.34
2022-09-16T12:41:12.778Z,91667.75
2022-09-16T12:44:33.555Z,91670.63
2022-09-16T12:47:46.077Z,91688.69
2022-09-16T12:50:49.079Z,91692.16
2022-09-16T12:53:57.531Z,91712.75
2022-09-16T12:56:45.775Z,91744.72
2022-09-16T12:59:50.937Z,91746.22
2022-09-16T13:02:28.306Z,91760.72
2022-09-16T13:05:11.080Z,91767.22
2022-09-16T13:07:50.305Z,91773.31
2022-09-16T13:10:53.848Z,91785.06
2022-09-16T13:13:30.825Z,91788.78
2022-09-16T13:16:06.792Z,91793.31
2022-09-16T13:18:43.006Z,91785.31
2022-09-16T13:21:26.607Z,91775.00
2022-09-16T13:24:12.418Z,91778.78
2022-09-16T13:26:45.403Z,91762.38
2022-09-16T13:29:31.247Z,91750.25
2022-09-16T13:32:04.221Z,91744.09
2022-09-16T13:34:36.559Z,91714.47
2022-09-16T13:37:15.014Z,91701.56
2022-09-16T13:39:50.334Z,91692.41
2022-09-16T13:42:24.633Z,91672.25
2022-09-16T13:44:56.963Z,91627.44
2022-09-16T13:47:33.458Z,91632.53
2022-09-16T13:50:12.817Z,91635.84
2022-09-16T13:52:46.338Z,91637.00
2022-09-16T13:55:22.335Z,91641.81
2022-09-16T13:58:00.826Z,91650.88
2022-09-16T14:00:40.834Z,91638.16
2022-09-16T14:03:43.603Z,91637.50
2022-09-16T14:06:40.441Z,91650.22
2022-09-16T14:09:27.086Z,91654.47
2022-09-16T14:12:08.159Z,91662.72
2022-09-16T14:14:47.314Z,91676.78
2022-09-16T14:17:23.147Z,91690.38
2022-09-16T14:19:59.190Z,91698.00
2022-09-16T14:22:33.010Z,91687.81
2022-09-16T14:25:30.736Z,91682.47
2022-09-16T14:28:17.192Z,91659.22
2022-09-16T14:30:53.345Z,91638.31
2022-09-16T14:33:29.601Z,91638.09
2022-09-16T14:36:10.383Z,91637.38
2022-09-16T14:38:46.635Z,91634.72
2022-09-16T14:41:26.299Z,91632.13
2022-09-16T14:44:03.083Z,91635.69
2022-09-16T14:46:41.684Z,91652.34
2022-09-16T14:49:15.567Z,91636.16
2022-09-16T14:51:51.451Z,91629.03
2022-09-16T14:54:25.889Z,91636.66
2022-09-16T14:57:01.380Z,91649.19
2022-09-16T14:59:37.296Z,91655.28
2022-09-16T15:02:17.770Z,91661.03
2022-09-16T15:04:54.634Z,91662.56
2022-09-16T15:07:30.203Z,91666.78
2022-09-16T15:10:06.977Z,91667.22
2022-09-16T15:12:46.164Z,91665.69
2022-09-16T15:15:22.395Z,91669.06
2022-09-16T15:17:58.542Z,91682.28
2022-09-16T15:20:33.383Z,91675.03
2022-09-16T15:23:12.228Z,91648.59
2022-09-16T15:25:53.053Z,91606.75
2022-09-16T15:28:25.695Z,91576.94
2022-09-16T15:30:59.499Z,91562.41
2022-09-16T15:33:34.725Z,91560.13
2022-09-16T15:36:27.291Z,91550.31
2022-09-16T15:38:59.614Z,91553.22
2022-09-16T15:41:32.047Z,91554.19
2022-09-16T15:44:08.699Z,91558.38
2022-09-16T15:46:45.701Z,91549.34
2022-09-16T15:49:19.439Z,91552.81
2022-09-16T15:51:52.542Z,91551.28
2022-09-16T15:54:30.435Z,91555.00
2022-09-16T15:57:08.928Z,91539.22
2022-09-16T15:59:45.914Z,91541.44
2022-09-16T16:02:24.875Z,91530.97
2022-09-16T16:05:05.851Z,91526.16
2022-09-16T16:07:40.634Z,91526.84
2022-09-16T16:10:19.603Z,91537.50
2022-09-16T16:12:53.855Z,91538.97
2022-09-16T16:15:28.572Z,91518.44
2022-09-16T16:18:05.316Z,91524.75
2022-09-16T16:20:39.247Z,91524.94
2022-09-16T16:23:12.479Z,91520.50
2022-09-16T16:25:44.974Z,91534.09
2022-09-16T16:28:17.343Z,91523.22
2022-09-16T16:30:49.731Z,91520.19
2022-09-16T16:33:22.738Z,91519.38
2022-09-16T16:35:55.011Z,91511.03
2022-09-16T16:38:27.390Z,91514.06
2022-09-16T16:40:59.687Z,91506.91
2022-09-16T16:43:32.015Z,91513.41
2022-09-16T16:46:04.600Z,91500.09
2022-09-16T16:48:38.418Z,91504.25
2022-09-16T16:51:12.310Z,91500.88
2022-09-16T16:53:47.513Z,91494.09
2022-09-16T16:56:19.827Z,91501.25
2022-09-16T16:58:54.018Z,91495.63
2022-09-16T17:01:27.017Z,91489.59
2022-09-16T17:04:00.455Z,91481.66
2022-09-16T17:06:34.014Z,91476.28
2022-09-16T17:09:10.242Z,91476.41
2022-09-16T17:11:51.098Z,91474.16
2022-09-16T17:14:25.036Z,91466.97
2022-09-16T17:16:57.482Z,91483.25
2022-09-16T17:19:31.729Z,91478.28
2022-09-16T17:22:04.198Z,91474.16
2022-09-16T17:24:36.549Z,91472.34
2022-09-16T17:27:08.949Z,91467.03
2022-09-16T17:29:41.303Z,91471.94
2022-09-16T17:32:13.612Z,91472.78
2022-09-16T17:34:46.592Z,91477.59
2022-09-16T17:37:19.225Z,91487.41
2022-09-16T17:39:51.563Z,91490.31
2022-09-16T17:42:24.241Z,91484.66
2022-09-16T17:44:56.591Z,91472.25
2022-09-16T17:47:29.741Z,91468.00
2022-09-16T17:50:04.663Z,91477.94
2022-09-16T17:52:37.006Z,91472.66
2022-09-16T17:55:09.554Z,91473.81
2022-09-16T17:57:41.926Z,91469.69
2022-09-16T18:00:15.515Z,91469.00
2022-09-16T18:02:47.887Z,91471.59
2022-09-16T18:05:21.012Z,91481.88
2022-09-16T18:07:53.471Z,91476.94
2022-09-16T18:10:26.115Z,91479.91
2022-09-16T18:12:58.417Z,91475.47
2022-09-16T18:15:30.735Z,91478.09
2022-09-16T18:18:03.082Z,91482.31
2022-09-16T18:20:36.055Z,91478.53
2022-09-16T18:23:08.747Z,91480.03
2022-09-16T18:25:41.063Z,91479.69
2022-09-16T18:28:13.518Z,91472.50
2022-09-16T18:30:45.910Z,91473.53
2022-09-16T18:33:18.211Z,91471.63
2022-09-16T18:35:51.485Z,91470.84
2022-09-16T18:38:23.785Z,91470.09
2022-09-16T18:41:04.286Z,91468.63
2022-09-16T18:43:38.072Z,91468.63
2022-09-16T18:46:12.340Z,91465.25
2022-09-16T18:48:46.707Z,91470.22
2022-09-16T18:51:21.562Z,91463.38
2022-09-16T18:53:55.826Z,91465.56
2022-09-16T18:56:30.334Z,91462.94
2022-09-16T18:59:22.574Z,91459.13
2022-09-16T19:01:57.913Z,91456.59
2022-09-16T19:04:32.280Z,91458.50
2022-09-16T19:07:07.439Z,91455.13
2022-09-16T19:09:40.208Z,91462.03
2022-09-16T19:12:13.389Z,91445.38
2022-09-16T19:14:45.725Z,91443.50
2022-09-16T19:17:18.246Z,91426.13
2022-09-16T19:19:51.478Z,91420.47
2022-09-16T19:22:24.583Z,91426.91
2022-09-16T19:24:56.931Z,91430.72
2022-09-16T19:27:29.593Z,91437.91
2022-09-16T19:30:02.653Z,91432.97
2022-09-16T19:32:35.172Z,91438.34
2022-09-16T19:35:07.754Z,91438.69
2022-09-16T19:37:40.720Z,91440.25
2022-09-16T19:40:14.261Z,91447.44
2022-09-16T19:42:47.075Z,91445.19
2022-09-16T19:45:19.535Z,91442.94
2022-09-16T19:47:51.908Z,91451.25
2022-09-16T19:50:24.658Z,91438.38
2022-09-16T19:52:57.671Z,91433.09
2022-09-16T19:55:30.372Z,91431.59
2022-09-16T19:58:02.739Z,91428.56
2022-09-16T20:00:55.101Z,91435.78
2022-09-16T20:03:29.875Z,91431.22
2022-09-16T20:06:03.638Z,91434.66
2022-09-16T20:08:38.855Z,91437.28
2022-09-16T20:11:12.775Z,91424.78
2022-09-16T20:13:48.563Z,91420.63
2022-09-16T20:16:23.184Z,91428.97
2022-09-16T20:18:55.561Z,91422.16
2022-09-16T20:21:29.255Z,91432.38
2022-09-16T20:24:04.887Z,91437.31
2022-09-16T20:26:37.295Z,91435.81
2022-09-16T20:29:09.694Z,91431.25
2022-09-16T20:31:42.214Z,91431.28
2022-09-16T20:34:15.561Z,91441.47
2022-09-16T20:36:47.905Z,91436.94
2022-09-16T20:39:21.432Z,91444.91
2022-09-16T20:41:53.968Z,91439.19
2022-09-16T20:44:26.350Z,91450.94
2022-09-16T20:46:58.918Z,91450.56
2022-09-16T20:49:31.431Z,91444.91
2022-09-16T20:52:03.796Z,91434.31
2022-09-16T20:54:36.785Z,91449.47
2022-09-16T20:57:09.281Z,91438.88
2022-09-16T20:59:41.743Z,91444.91
2022-09-16T21:02:14.088Z,91450.59
2022-09-16T21:04:46.422Z,91444.19
2022-09-16T21:07:18.769Z,91439.63
2022-09-16T21:09:51.740Z,91436.59
2022-09-16T21:12:24.239Z,91433.56
2022-09-16T21:14:57.034Z,91433.53
2022-09-16T21:17:29.806Z,91412.34
2022-09-16T21:20:02.678Z,91416.53
2022-09-16T21:22:35.689Z,91416.13
2022-09-16T21:25:09.194Z,91402.13
2022-09-16T21:27:41.574Z,91386.59
2022-09-16T21:30:14.090Z,91380.94
2022-09-16T21:32:46.387Z,91378.66
2022-09-16T21:35:18.685Z,91374.84
2022-09-16T21:37:50.944Z,91361.59
2022-09-16T21:40:24.024Z,91353.28
2022-09-16T21:42:56.323Z,91360.84
2022-09-16T21:45:28.623Z,91365.00
2022-09-16T21:48:01.309Z,91365.75
2022-09-16T21:50:33.783Z,91369.53
2022-09-16T21:53:06.153Z,91372.16
2022-09-16T21:55:39.502Z,91372.75
2022-09-16T21:58:11.857Z,91371.53
2022-09-16T22:00:44.220Z,91385.00
2022-09-16T22:03:16.560Z,91373.13
2022-09-16T22:05:48.878Z,91362.03
2022-09-16T22:08:21.207Z,91371.44
2022-09-16T22:10:59.727Z,91366.44
2022-09-16T22:13:32.942Z,91361.44
2022-09-16T22:16:06.472Z,91367.28
2022-09-16T22:18:39.096Z,91370.38
2022-09-16T22:21:13.596Z,91367.63
2022-09-16T22:23:45.938Z,91373.81
2022-09-16T22:26:20.783Z,91376.97
2022-09-16T22:28:53.270Z,91369.03
2022-09-16T22:31:27.673Z,91350.41
2022-09-16T22:34:01.223Z,91352.41
2022-09-16T22:36:35.338Z,91355.09
2022-09-16T22:39:12.128Z,91370.41
2022-09-16T22:41:45.751Z,91369.19
2022-09-16T22:44:18.069Z,91374.75
2022-09-16T22:46:50.488Z,91376.41
2022-09-16T22:49:22.833Z,91377.22
2022-09-16T22:51:55.185Z,91373.06
2022-09-16T22:54:27.515Z,91373.88
2022-09-16T22:57:00.479Z,91368.56
2022-09-16T22:59:32.794Z,91375.00
2022-09-16T23:02:05.329Z,91361.78
2022-09-16T23:04:37.690Z,91368.19
2022-09-16T23:07:09.983Z,91355.00
2022-09-16T23:09:42.264Z,91362.59
2022-09-16T23:12:16.286Z,91362.97
2022-09-16T23:14:48.731Z,91350.22
2022-09-16T23:17:21.288Z,91348.31
2022-09-16T23:19:55.117Z,91349.44
2022-09-16T23:22:27.423Z,91337.78
2022-09-16T23:24:59.766Z,91340.78
2022-09-16T23:27:32.771Z,91347.22
2022-09-16T23:30:06.186Z,91334.44
2022-09-16T23:32:38.458Z,91331.03
2022-09-16T23:35:10.878Z,91326.53
2022-09-16T23:37:43.177Z,91322.41
2022-09-16T23:40:15.644Z,91312.53
2022-09-16T23:42:50.212Z,91316.34
2022-09-16T23:45:22.913Z,91312.88
2022-09-16T23:47:55.243Z,91310.13
2022-09-16T23:50:27.553Z,91301.53
2022-09-16T23:52:59.974Z,91308.31
2022-09-16T23:55:32.309Z,91303.41
2022-09-16T23:58:05.300Z,91300.41
